sensor_id;sensor_type;location;lat;lon;timestamp;pressure;altitude;pressure_sealevel;temperature;humidity
59409;BME280;45213;32.654;-115.458;2023-04-04T00:00:17;100683.97;;;20.52;19.57
59409;BME280;45213;32.654;-115.458;2023-04-04T00:02:43;100686.03;;;20.44;20.07
59409;BME280;45213;32.654;-115.458;2023-04-04T00:05:10;100715.50;;;20.32;19.96
59409;BME280;45213;32.654;-115.458;2023-04-04T00:07:37;100693.53;;;20.03;20.24
59409;BME280;45213;32.654;-115.458;2023-04-04T00:10:03;100684.19;;;20.19;20.14
59409;BME280;45213;32.654;-115.458;2023-04-04T00:12:30;100709.63;;;20.23;20.31
59409;BME280;45213;32.654;-115.458;2023-04-04T00:14:57;100719.03;;;20.04;20.64
59409;BME280;45213;32.654;-115.458;2023-04-04T00:17:23;100724.50;;;19.98;20.34
59409;BME280;45213;32.654;-115.458;2023-04-04T00:19:50;100722.34;;;19.83;20.04
59409;BME280;45213;32.654;-115.458;2023-04-04T00:22:17;100721.25;;;19.90;20.12
59409;BME280;45213;32.654;-115.458;2023-04-04T00:24:44;100751.66;;;20.03;20.06
59409;BME280;45213;32.654;-115.458;2023-04-04T00:27:10;100748.31;;;19.67;20.73
59409;BME280;45213;32.654;-115.458;2023-04-04T00:29:37;100749.94;;;19.72;20.82
59409;BME280;45213;32.654;-115.458;2023-04-04T00:32:03;100755.06;;;19.78;20.78
59409;BME280;45213;32.654;-115.458;2023-04-04T00:34:30;100766.13;;;19.60;20.83
59409;BME280;45213;32.654;-115.458;2023-04-04T00:36:57;100777.97;;;19.45;20.93
59409;BME280;45213;32.654;-115.458;2023-04-04T00:39:24;100779.19;;;19.33;21.67
59409;BME280;45213;32.654;-115.458;2023-04-04T00:41:52;100772.34;;;19.26;21.71
59409;BME280;45213;32.654;-115.458;2023-04-04T00:44:18;100786.94;;;19.07;21.50
59409;BME280;45213;32.654;-115.458;2023-04-04T00:46:45;100786.97;;;19.38;21.60
59409;BME280;45213;32.654;-115.458;2023-04-04T00:49:12;100788.13;;;19.28;21.55
59409;BME280;45213;32.654;-115.458;2023-04-04T00:51:38;100797.63;;;19.01;22.42
59409;BME280;45213;32.654;-115.458;2023-04-04T00:54:05;100801.44;;;18.90;22.58
59409;BME280;45213;32.654;-115.458;2023-04-04T00:56:31;100809.84;;;19.05;22.70
59409;BME280;45213;32.654;-115.458;2023-04-04T00:59:01;100818.06;;;19.28;22.60
59409;BME280;45213;32.654;-115.458;2023-04-04T01:01:28;100842.56;;;18.99;22.98
59409;BME280;45213;32.654;-115.458;2023-04-04T01:03:56;100848.75;;;18.57;23.16
59409;BME280;45213;32.654;-115.458;2023-04-04T01:06:23;100849.06;;;18.45;23.57
59409;BME280;45213;32.654;-115.458;2023-04-04T01:08:51;100854.13;;;18.53;23.62
59409;BME280;45213;32.654;-115.458;2023-04-04T01:11:20;100861.50;;;18.39;24.29
59409;BME280;45213;32.654;-115.458;2023-04-04T01:13:47;100867.41;;;18.50;23.80
59409;BME280;45213;32.654;-115.458;2023-04-04T01:16:15;100873.38;;;18.18;23.84
59409;BME280;45213;32.654;-115.458;2023-04-04T01:18:42;100879.50;;;18.20;24.17
59409;BME280;45213;32.654;-115.458;2023-04-04T01:21:14;100885.34;;;17.90;24.93
59409;BME280;45213;32.654;-115.458;2023-04-04T01:24:00;100894.97;;;17.93;25.23
59409;BME280;45213;32.654;-115.458;2023-04-04T01:26:38;100891.69;;;17.79;25.23
59409;BME280;45213;32.654;-115.458;2023-04-04T01:29:06;100901.66;;;17.63;25.64
59409;BME280;45213;32.654;-115.458;2023-04-04T01:31:38;100897.16;;;17.69;25.97
59409;BME280;45213;32.654;-115.458;2023-04-04T01:34:27;100899.63;;;17.27;26.88
59409;BME280;45213;32.654;-115.458;2023-04-04T01:37:03;100900.47;;;17.29;26.71
59409;BME280;45213;32.654;-115.458;2023-04-04T01:39:42;100908.66;;;17.11;27.24
59409;BME280;45213;32.654;-115.458;2023-04-04T01:42:12;100926.25;;;17.07;27.23
59409;BME280;45213;32.654;-115.458;2023-04-04T01:44:41;100930.66;;;17.05;26.78
59409;BME280;45213;32.654;-115.458;2023-04-04T01:47:11;100925.69;;;16.88;27.18
59409;BME280;45213;32.654;-115.458;2023-04-04T01:49:39;100923.22;;;16.75;27.22
59409;BME280;45213;32.654;-115.458;2023-04-04T01:52:06;100930.50;;;16.54;27.36
59409;BME280;45213;32.654;-115.458;2023-04-04T01:54:33;100934.06;;;16.50;27.18
59409;BME280;45213;32.654;-115.458;2023-04-04T01:57:01;100931.56;;;16.41;27.41
59409;BME280;45213;32.654;-115.458;2023-04-04T01:59:28;100929.09;;;16.27;27.53
59409;BME280;45213;32.654;-115.458;2023-04-04T02:01:55;100929.25;;;16.15;27.89
59409;BME280;45213;32.654;-115.458;2023-04-04T02:04:22;100939.78;;;16.15;27.88
59409;BME280;45213;32.654;-115.458;2023-04-04T02:06:49;100946.97;;;15.97;28.49
59409;BME280;45213;32.654;-115.458;2023-04-04T02:09:17;100940.13;;;15.81;28.88
59409;BME280;45213;32.654;-115.458;2023-04-04T02:11:45;100938.47;;;15.71;28.81
59409;BME280;45213;32.654;-115.458;2023-04-04T02:14:12;100938.47;;;15.68;29.28
59409;BME280;45213;32.654;-115.458;2023-04-04T02:16:38;100939.38;;;15.63;29.49
59409;BME280;45213;32.654;-115.458;2023-04-04T02:19:05;100933.31;;;15.55;29.86
59409;BME280;45213;32.654;-115.458;2023-04-04T02:21:35;100935.06;;;15.56;30.10
59409;BME280;45213;32.654;-115.458;2023-04-04T02:24:02;100942.22;;;15.39;30.07
59409;BME280;45213;32.654;-115.458;2023-04-04T02:26:29;100944.09;;;15.21;30.16
59409;BME280;45213;32.654;-115.458;2023-04-04T02:28:56;100944.06;;;15.29;29.98
59409;BME280;45213;32.654;-115.458;2023-04-04T02:31:22;100943.19;;;15.29;29.85
59409;BME280;45213;32.654;-115.458;2023-04-04T02:33:50;100944.94;;;15.23;30.02
59409;BME280;45213;32.654;-115.458;2023-04-04T02:36:18;100948.44;;;15.27;30.01
59409;BME280;45213;32.654;-115.458;2023-04-04T02:38:47;100955.44;;;15.25;30.08
59409;BME280;45213;32.654;-115.458;2023-04-04T02:41:14;100954.59;;;15.21;30.37
59409;BME280;45213;32.654;-115.458;2023-04-04T02:43:41;100959.06;;;15.07;30.58
59409;BME280;45213;32.654;-115.458;2023-04-04T02:46:08;100953.88;;;14.98;30.47
59409;BME280;45213;32.654;-115.458;2023-04-04T02:48:35;100963.59;;;14.83;30.51
59409;BME280;45213;32.654;-115.458;2023-04-04T02:51:02;100957.47;;;14.85;30.31
59409;BME280;45213;32.654;-115.458;2023-04-04T02:53:30;100947.88;;;14.82;30.32
59409;BME280;45213;32.654;-115.458;2023-04-04T02:56:02;100954.91;;;14.78;29.88
59409;BME280;45213;32.654;-115.458;2023-04-04T02:58:30;100965.41;;;14.72;30.23
59409;BME280;45213;32.654;-115.458;2023-04-04T03:00:57;100977.63;;;14.73;30.22
59409;BME280;45213;32.654;-115.458;2023-04-04T03:03:28;100983.78;;;14.61;30.46
59409;BME280;45213;32.654;-115.458;2023-04-04T03:05:57;101004.75;;;14.66;30.71
59409;BME280;45213;32.654;-115.458;2023-04-04T03:08:23;101000.41;;;14.60;30.88
59409;BME280;45213;32.654;-115.458;2023-04-04T03:10:50;101007.38;;;14.54;31.25
59409;BME280;45213;32.654;-115.458;2023-04-04T03:13:16;100998.66;;;14.52;31.80
59409;BME280;45213;32.654;-115.458;2023-04-04T03:15:44;100993.47;;;14.36;31.72
59409;BME280;45213;32.654;-115.458;2023-04-04T03:18:12;101002.19;;;14.38;31.70
59409;BME280;45213;32.654;-115.458;2023-04-04T03:20:39;100992.59;;;14.40;31.88
59409;BME280;45213;32.654;-115.458;2023-04-04T03:23:05;101006.56;;;14.41;31.72
59409;BME280;45213;32.654;-115.458;2023-04-04T03:25:32;101006.59;;;14.29;32.08
59409;BME280;45213;32.654;-115.458;2023-04-04T03:28:09;101016.16;;;14.34;31.88
59409;BME280;45213;32.654;-115.458;2023-04-04T03:30:36;101010.94;;;14.31;32.01
59409;BME280;45213;32.654;-115.458;2023-04-04T03:33:04;101022.31;;;14.27;31.99
59409;BME280;45213;32.654;-115.458;2023-04-04T03:35:41;101030.19;;;14.19;32.42
59409;BME280;45213;32.654;-115.458;2023-04-04T03:38:08;101035.44;;;14.18;32.29
59409;BME280;45213;32.654;-115.458;2023-04-04T03:40:35;101040.66;;;14.18;32.58
59409;BME280;45213;32.654;-115.458;2023-04-04T03:43:08;101056.38;;;14.13;32.50
59409;BME280;45213;32.654;-115.458;2023-04-04T03:45:35;101058.13;;;14.11;32.41
59409;BME280;45213;32.654;-115.458;2023-04-04T03:48:02;101056.38;;;14.21;32.39
59409;BME280;45213;32.654;-115.458;2023-04-04T03:50:30;101065.13;;;14.15;32.41
59409;BME280;45213;32.654;-115.458;2023-04-04T03:52:57;101082.56;;;14.09;33.05
59409;BME280;45213;32.654;-115.458;2023-04-04T03:55:24;101072.97;;;14.05;33.02
59409;BME280;45213;32.654;-115.458;2023-04-04T03:57:54;101082.56;;;13.96;33.33
59409;BME280;45213;32.654;-115.458;2023-04-04T04:00:21;101086.94;;;14.00;33.31
59409;BME280;45213;32.654;-115.458;2023-04-04T04:02:47;101083.47;;;13.97;33.42
59409;BME280;45213;32.654;-115.458;2023-04-04T04:05:14;101089.56;;;13.97;33.76
59409;BME280;45213;32.654;-115.458;2023-04-04T04:07:44;101099.16;;;13.89;33.87
59409;BME280;45213;32.654;-115.458;2023-04-04T04:10:11;101103.53;;;13.84;34.12
59409;BME280;45213;32.654;-115.458;2023-04-04T04:12:39;101107.00;;;13.89;34.02
59409;BME280;45213;32.654;-115.458;2023-04-04T04:15:06;101110.50;;;13.88;34.25
59409;BME280;45213;32.654;-115.458;2023-04-04T04:17:34;101117.50;;;13.83;34.42
59409;BME280;45213;32.654;-115.458;2023-04-04T04:20:04;101140.19;;;13.81;34.15
59409;BME280;45213;32.654;-115.458;2023-04-04T04:22:37;101149.75;;;13.87;34.41
59409;BME280;45213;32.654;-115.458;2023-04-04T04:25:04;101151.53;;;13.88;34.37
59409;BME280;45213;32.654;-115.458;2023-04-04T04:27:32;101163.75;;;13.95;34.37
59409;BME280;45213;32.654;-115.458;2023-04-04T04:29:59;101164.59;;;13.89;34.38
59409;BME280;45213;32.654;-115.458;2023-04-04T04:32:26;101172.44;;;13.89;34.64
59409;BME280;45213;32.654;-115.458;2023-04-04T04:34:53;101171.56;;;13.84;34.75
59409;BME280;45213;32.654;-115.458;2023-04-04T04:37:26;101178.53;;;13.85;34.83
59409;BME280;45213;32.654;-115.458;2023-04-04T04:39:55;101172.44;;;13.89;34.85
59409;BME280;45213;32.654;-115.458;2023-04-04T04:42:45;101178.56;;;13.91;34.64
59409;BME280;45213;32.654;-115.458;2023-04-04T04:45:15;101180.31;;;13.83;34.86
59409;BME280;45213;32.654;-115.458;2023-04-04T04:47:47;101189.03;;;13.88;35.02
59409;BME280;45213;32.654;-115.458;2023-04-04T04:50:16;101200.38;;;13.81;35.31
59409;BME280;45213;32.654;-115.458;2023-04-04T04:52:49;101204.69;;;13.71;35.60
59409;BME280;45213;32.654;-115.458;2023-04-04T04:55:17;101212.53;;;13.67;35.54
59409;BME280;45213;32.654;-115.458;2023-04-04T04:57:50;101230.84;;;13.64;35.47
59409;BME280;45213;32.654;-115.458;2023-04-04T05:00:24;101228.25;;;13.65;35.25
59409;BME280;45213;32.654;-115.458;2023-04-04T05:02:54;101239.59;;;13.69;34.99
59409;BME280;45213;32.654;-115.458;2023-04-04T05:05:29;101257.91;;;13.69;34.38
59409;BME280;45213;32.654;-115.458;2023-04-04T05:08:03;101249.16;;;13.67;34.85
59409;BME280;45213;32.654;-115.458;2023-04-04T05:10:30;101250.91;;;13.65;34.93
59409;BME280;45213;32.654;-115.458;2023-04-04T05:12:57;101253.56;;;13.68;35.14
59409;BME280;45213;32.654;-115.458;2023-04-04T05:15:28;101251.75;;;13.57;35.18
59409;BME280;45213;32.654;-115.458;2023-04-04T05:17:55;101263.03;;;13.44;35.08
59409;BME280;45213;32.654;-115.458;2023-04-04T05:20:22;101277.88;;;13.45;35.27
59409;BME280;45213;32.654;-115.458;2023-04-04T05:22:50;101287.44;;;13.46;35.23
59409;BME280;45213;32.654;-115.458;2023-04-04T05:25:24;101285.72;;;13.45;35.22
59409;BME280;45213;32.654;-115.458;2023-04-04T05:27:52;101290.91;;;13.39;35.49
59409;BME280;45213;32.654;-115.458;2023-04-04T05:30:20;101295.25;;;13.37;35.63
59409;BME280;45213;32.654;-115.458;2023-04-04T05:33:00;101310.13;;;13.43;35.74
59409;BME280;45213;32.654;-115.458;2023-04-04T05:35:29;101301.38;;;13.36;35.39
59409;BME280;45213;32.654;-115.458;2023-04-04T05:37:57;101310.94;;;13.32;35.45
59409;BME280;45213;32.654;-115.458;2023-04-04T05:40:24;101309.19;;;13.33;35.40
59409;BME280;45213;32.654;-115.458;2023-04-04T05:43:01;101298.72;;;13.33;35.48
59409;BME280;45213;32.654;-115.458;2023-04-04T05:45:35;101300.44;;;13.28;35.45
59409;BME280;45213;32.654;-115.458;2023-04-04T05:48:02;101303.88;;;13.22;35.95
59409;BME280;45213;32.654;-115.458;2023-04-04T05:50:34;101303.78;;;13.14;36.15
59409;BME280;45213;32.654;-115.458;2023-04-04T05:53:04;101302.06;;;13.16;36.16
59409;BME280;45213;32.654;-115.458;2023-04-04T05:55:31;101305.56;;;13.15;36.27
59409;BME280;45213;32.654;-115.458;2023-04-04T05:57:58;101306.41;;;13.14;36.42
59409;BME280;45213;32.654;-115.458;2023-04-04T06:00:40;101310.75;;;13.12;36.70
59409;BME280;45213;32.654;-115.458;2023-04-04T06:03:08;101322.13;;;13.16;36.58
59409;BME280;45213;32.654;-115.458;2023-04-04T06:05:35;101327.34;;;13.19;36.86
59409;BME280;45213;32.654;-115.458;2023-04-04T06:08:02;101333.44;;;13.13;37.00
59409;BME280;45213;32.654;-115.458;2023-04-04T06:10:28;101337.81;;;13.13;36.97
59409;BME280;45213;32.654;-115.458;2023-04-04T06:12:56;101349.13;;;13.16;37.21
59409;BME280;45213;32.654;-115.458;2023-04-04T06:15:22;101335.16;;;13.11;37.19
59409;BME280;45213;32.654;-115.458;2023-04-04T06:17:50;101342.13;;;13.09;37.48
59409;BME280;45213;32.654;-115.458;2023-04-04T06:20:16;101354.31;;;13.07;37.54
59409;BME280;45213;32.654;-115.458;2023-04-04T06:22:47;101350.03;;;13.19;37.46
59409;BME280;45213;32.654;-115.458;2023-04-04T06:25:14;101350.88;;;13.14;37.78
59409;BME280;45213;32.654;-115.458;2023-04-04T06:27:42;101354.28;;;13.04;38.16
59409;BME280;45213;32.654;-115.458;2023-04-04T06:30:09;101352.53;;;13.03;38.30
59409;BME280;45213;32.654;-115.458;2023-04-04T06:32:37;101352.53;;;13.03;38.49
59409;BME280;45213;32.654;-115.458;2023-04-04T06:35:05;101362.97;;;13.03;38.62
59409;BME280;45213;32.654;-115.458;2023-04-04T06:37:46;101357.75;;;13.03;38.57
59409;BME280;45213;32.654;-115.458;2023-04-04T06:40:17;101355.09;;;12.99;38.49
59409;BME280;45213;32.654;-115.458;2023-04-04T06:42:48;101359.47;;;12.98;38.37
59409;BME280;45213;32.654;-115.458;2023-04-04T06:45:21;101365.53;;;12.95;38.31
59409;BME280;45213;32.654;-115.458;2023-04-04T06:47:49;101362.94;;;12.97;38.20
59409;BME280;45213;32.654;-115.458;2023-04-04T06:50:20;101365.50;;;12.91;38.58
59409;BME280;45213;32.654;-115.458;2023-04-04T06:52:50;101368.06;;;12.85;38.49
59409;BME280;45213;32.654;-115.458;2023-04-04T06:55:17;101372.47;;;12.90;38.54
59409;BME280;45213;32.654;-115.458;2023-04-04T06:57:44;101369.00;;;12.91;38.22
59409;BME280;45213;32.654;-115.458;2023-04-04T07:00:11;101373.31;;;12.88;38.26
59409;BME280;45213;32.654;-115.458;2023-04-04T07:02:38;101386.34;;;12.83;38.30
59409;BME280;45213;32.654;-115.458;2023-04-04T07:05:05;101389.84;;;12.84;37.94
59409;BME280;45213;32.654;-115.458;2023-04-04T07:07:32;101382.00;;;12.84;37.57
59409;BME280;45213;32.654;-115.458;2023-04-04T07:09:59;101389.06;;;12.92;37.69
59409;BME280;45213;32.654;-115.458;2023-04-04T07:12:29;101395.19;;;12.94;37.36
59409;BME280;45213;32.654;-115.458;2023-04-04T07:14:56;101391.63;;;12.88;36.86
59409;BME280;45213;32.654;-115.458;2023-04-04T07:17:23;101392.50;;;12.88;36.55
59409;BME280;45213;32.654;-115.458;2023-04-04T07:19:50;101391.63;;;12.88;36.39
59409;BME280;45213;32.654;-115.458;2023-04-04T07:22:17;101389.84;;;12.87;36.10
59409;BME280;45213;32.654;-115.458;2023-04-04T07:24:43;101382.00;;;12.87;36.05
59409;BME280;45213;32.654;-115.458;2023-04-04T07:27:10;101394.25;;;12.88;36.14
59409;BME280;45213;32.654;-115.458;2023-04-04T07:29:40;101395.13;;;12.91;36.10
59409;BME280;45213;32.654;-115.458;2023-04-04T07:32:06;101416.88;;;12.89;36.20
59409;BME280;45213;32.654;-115.458;2023-04-04T07:34:33;101423.72;;;12.74;37.05
59409;BME280;45213;32.654;-115.458;2023-04-04T07:36:59;101416.63;;;12.64;36.95
59409;BME280;45213;32.654;-115.458;2023-04-04T07:39:26;101425.34;;;12.63;36.73
59409;BME280;45213;32.654;-115.458;2023-04-04T07:41:52;101423.59;;;12.64;36.08
59409;BME280;45213;32.654;-115.458;2023-04-04T07:44:19;101436.66;;;12.62;34.76
59409;BME280;45213;32.654;-115.458;2023-04-04T07:46:46;101434.78;;;12.50;29.95
59409;BME280;45213;32.654;-115.458;2023-04-04T07:49:13;101432.22;;;12.55;27.95
59409;BME280;45213;32.654;-115.458;2023-04-04T07:51:39;101427.00;;;12.55;26.34
59409;BME280;45213;32.654;-115.458;2023-04-04T07:54:06;101433.03;;;12.49;25.41
59409;BME280;45213;32.654;-115.458;2023-04-04T07:56:33;101437.19;;;12.33;24.92
59409;BME280;45213;32.654;-115.458;2023-04-04T07:58:59;101436.41;;;12.41;24.94
59409;BME280;45213;32.654;-115.458;2023-04-04T08:01:27;101429.31;;;12.29;24.17
59409;BME280;45213;32.654;-115.458;2023-04-04T08:03:53;101435.41;;;12.29;24.45
59409;BME280;45213;32.654;-115.458;2023-04-04T08:06:20;101436.31;;;12.33;24.21
59409;BME280;45213;32.654;-115.458;2023-04-04T08:08:47;101438.81;;;12.24;24.09
59409;BME280;45213;32.654;-115.458;2023-04-04T08:11:13;101442.22;;;12.18;23.74
59409;BME280;45213;32.654;-115.458;2023-04-04T08:13:40;101444.81;;;12.15;23.59
59409;BME280;45213;32.654;-115.458;2023-04-04T08:16:07;101446.34;;;12.01;22.69
59409;BME280;45213;32.654;-115.458;2023-04-04T08:18:34;101451.56;;;12.01;22.41
59409;BME280;45213;32.654;-115.458;2023-04-04T08:21:00;101462.13;;;12.10;22.31
59409;BME280;45213;32.654;-115.458;2023-04-04T08:23:27;101456.97;;;12.15;22.00
59409;BME280;45213;32.654;-115.458;2023-04-04T08:25:54;101460.41;;;12.12;21.60
59409;BME280;45213;32.654;-115.458;2023-04-04T08:28:22;101464.56;;;11.98;21.12
59409;BME280;45213;32.654;-115.458;2023-04-04T08:30:54;101449.81;;;12.00;21.35
59409;BME280;45213;32.654;-115.458;2023-04-04T08:33:21;101465.63;;;12.10;21.35
59409;BME280;45213;32.654;-115.458;2023-04-04T08:35:51;101461.88;;;11.90;20.89
59409;BME280;45213;32.654;-115.458;2023-04-04T08:38:18;101467.97;;;11.90;21.06
59409;BME280;45213;32.654;-115.458;2023-04-04T08:40:46;101468.63;;;11.79;21.00
59409;BME280;45213;32.654;-115.458;2023-04-04T08:43:14;101472.78;;;11.66;20.82
59409;BME280;45213;32.654;-115.458;2023-04-04T08:45:42;101462.94;;;11.49;21.00
59409;BME280;45213;32.654;-115.458;2023-04-04T08:48:10;101472.53;;;11.50;21.09
59409;BME280;45213;32.654;-115.458;2023-04-04T08:50:40;101463.09;;;11.60;21.01
59409;BME280;45213;32.654;-115.458;2023-04-04T08:53:10;101461.97;;;11.43;20.71
59409;BME280;45213;32.654;-115.458;2023-04-04T08:55:38;101462.81;;;11.42;20.89
59409;BME280;45213;32.654;-115.458;2023-04-04T08:58:04;101461.03;;;11.38;20.69
59409;BME280;45213;32.654;-115.458;2023-04-04T09:00:31;101448.72;;;11.29;20.62
59409;BME280;45213;32.654;-115.458;2023-04-04T09:03:19;101454.88;;;11.34;20.53
59409;BME280;45213;32.654;-115.458;2023-04-04T09:05:47;101450.56;;;11.36;20.47
59409;BME280;45213;32.654;-115.458;2023-04-04T09:08:15;101447.16;;;11.42;20.48
59409;BME280;45213;32.654;-115.458;2023-04-04T09:10:44;101452.31;;;11.36;20.58
59409;BME280;45213;32.654;-115.458;2023-04-04T09:13:11;101449.72;;;11.39;20.85
59409;BME280;45213;32.654;-115.458;2023-04-04T09:15:39;101450.59;;;11.39;20.52
59409;BME280;45213;32.654;-115.458;2023-04-04T09:18:07;101451.63;;;11.47;21.02
59409;BME280;45213;32.654;-115.458;2023-04-04T09:23:14;101443.56;;;11.34;21.37
59409;BME280;45213;32.654;-115.458;2023-04-04T09:28:15;101442.63;;;11.30;21.62
59409;BME280;45213;32.654;-115.458;2023-04-04T09:30:42;101443.34;;;11.20;21.05
59409;BME280;45213;32.654;-115.458;2023-04-04T09:33:14;101458.16;;;11.22;21.22
59409;BME280;45213;32.654;-115.458;2023-04-04T09:35:49;101446.09;;;11.29;21.40
59409;BME280;45213;32.654;-115.458;2023-04-04T09:38:18;101453.88;;;11.27;21.47
59409;BME280;45213;32.654;-115.458;2023-04-04T09:40:46;101453.22;;;11.39;21.91
59409;BME280;45213;32.654;-115.458;2023-04-04T09:43:13;101456.00;;;11.50;21.89
59409;BME280;45213;32.654;-115.458;2023-04-04T09:45:43;101455.03;;;11.43;21.77
59409;BME280;45213;32.654;-115.458;2023-04-04T09:48:11;101455.97;;;11.47;22.61
59409;BME280;45213;32.654;-115.458;2023-04-04T09:50:45;101461.09;;;11.42;22.83
59409;BME280;45213;32.654;-115.458;2023-04-04T09:53:18;101458.31;;;11.32;22.63
59409;BME280;45213;32.654;-115.458;2023-04-04T09:55:53;101461.59;;;11.20;22.37
59409;BME280;45213;32.654;-115.458;2023-04-04T09:58:27;101468.94;;;10.94;22.79
59409;BME280;45213;32.654;-115.458;2023-04-04T10:00:59;101466.19;;;10.86;23.09
59409;BME280;45213;32.654;-115.458;2023-04-04T10:03:27;101479.38;;;10.51;22.77
59409;BME280;45213;32.654;-115.458;2023-04-04T10:06:03;101471.47;;;10.45;23.10
59409;BME280;45213;32.654;-115.458;2023-04-04T10:08:31;101467.88;;;10.40;22.90
59409;BME280;45213;32.654;-115.458;2023-04-04T10:11:00;101476.19;;;10.23;22.97
59409;BME280;45213;32.654;-115.458;2023-04-04T10:13:32;101473.88;;;10.36;22.76
59409;BME280;45213;32.654;-115.458;2023-04-04T10:16:01;101482.81;;;10.47;22.80
59409;BME280;45213;32.654;-115.458;2023-04-04T10:18:31;101468.59;;;10.33;22.55
59409;BME280;45213;32.654;-115.458;2023-04-04T10:21:02;101466.28;;;10.07;22.50
59409;BME280;45213;32.654;-115.458;2023-04-04T10:23:29;101463.38;;;9.93;23.07
59409;BME280;45213;32.654;-115.458;2023-04-04T10:25:57;101470.31;;;9.93;23.29
59409;BME280;45213;32.654;-115.458;2023-04-04T10:28:25;101472.56;;;10.15;23.10
59409;BME280;45213;32.654;-115.458;2023-04-04T10:33:49;101475.56;;;10.34;22.84
59409;BME280;45213;32.654;-115.458;2023-04-04T10:36:23;101480.91;;;10.40;22.99
59409;BME280;45213;32.654;-115.458;2023-04-04T10:42:25;101494.31;;;10.19;22.75
59409;BME280;45213;32.654;-115.458;2023-04-04T10:44:56;101488.94;;;10.11;22.79
59409;BME280;45213;32.654;-115.458;2023-04-04T10:47:24;101497.53;;;10.07;22.78
59409;BME280;45213;32.654;-115.458;2023-04-04T10:49:51;101496.34;;;9.93;22.55
59409;BME280;45213;32.654;-115.458;2023-04-04T10:52:20;101503.94;;;9.85;22.65
59409;BME280;45213;32.654;-115.458;2023-04-04T10:54:53;101507.81;;;10.02;22.42
59409;BME280;45213;32.654;-115.458;2023-04-04T10:57:22;101505.00;;;9.93;22.54
59409;BME280;45213;32.654;-115.458;2023-04-04T11:00:16;101501.66;;;9.97;22.28
59409;BME280;45213;32.654;-115.458;2023-04-04T11:03:00;101504.19;;;9.96;22.11
59409;BME280;45213;32.654;-115.458;2023-04-04T11:05:33;101511.28;;;10.03;22.18
59409;BME280;45213;32.654;-115.458;2023-04-04T11:08:06;101508.38;;;9.89;22.45
59409;BME280;45213;32.654;-115.458;2023-04-04T11:10:41;101508.28;;;9.85;22.17
59409;BME280;45213;32.654;-115.458;2023-04-04T11:13:16;101512.00;;;9.96;22.17
59409;BME280;45213;32.654;-115.458;2023-04-04T11:21:06;101515.78;;;9.72;22.66
59409;BME280;45213;32.654;-115.458;2023-04-04T11:26:35;101523.78;;;9.80;22.68
59409;BME280;45213;32.654;-115.458;2023-04-04T11:29:05;101522.41;;;9.96;22.37
59409;BME280;45213;32.654;-115.458;2023-04-04T11:31:42;101530.16;;;9.93;22.20
59409;BME280;45213;32.654;-115.458;2023-04-04T11:34:14;101531.06;;;9.95;22.05
59409;BME280;45213;32.654;-115.458;2023-04-04T11:39:28;101538.78;;;9.92;22.31
59409;BME280;45213;32.654;-115.458;2023-04-04T11:42:05;101545.69;;;9.90;22.19
59409;BME280;45213;32.654;-115.458;2023-04-04T11:45:01;101555.22;;;9.89;22.45
59409;BME280;45213;32.654;-115.458;2023-04-04T11:47:29;101558.56;;;9.83;22.25
59409;BME280;45213;32.654;-115.458;2023-04-04T11:49:57;101554.22;;;9.84;22.29
59409;BME280;45213;32.654;-115.458;2023-04-04T11:52:24;101555.97;;;9.83;22.36
59409;BME280;45213;32.654;-115.458;2023-04-04T11:54:51;101545.41;;;9.77;22.79
59409;BME280;45213;32.654;-115.458;2023-04-04T11:57:19;101557.53;;;9.77;22.73
59409;BME280;45213;32.654;-115.458;2023-04-04T11:59:48;101557.47;;;9.75;22.81
59409;BME280;45213;32.654;-115.458;2023-04-04T12:02:19;101552.91;;;9.67;22.93
59409;BME280;45213;32.654;-115.458;2023-04-04T12:04:46;101559.81;;;9.65;23.06
59409;BME280;45213;32.654;-115.458;2023-04-04T12:07:16;101567.66;;;9.66;22.99
59409;BME280;45213;32.654;-115.458;2023-04-04T12:09:43;101570.38;;;9.71;23.38
59409;BME280;45213;32.654;-115.458;2023-04-04T12:12:14;101574.38;;;9.58;23.36
59409;BME280;45213;32.654;-115.458;2023-04-04T12:14:43;101576.66;;;9.46;23.54
59409;BME280;45213;32.654;-115.458;2023-04-04T12:17:10;101572.56;;;9.54;23.62
59409;BME280;45213;32.654;-115.458;2023-04-04T12:19:38;101583.19;;;9.65;23.71
59409;BME280;45213;32.654;-115.458;2023-04-04T12:22:05;101591.81;;;9.62;23.34
59409;BME280;45213;32.654;-115.458;2023-04-04T12:24:34;101596.03;;;9.57;23.49
59409;BME280;45213;32.654;-115.458;2023-04-04T12:27:00;101601.16;;;9.55;23.89
59409;BME280;45213;32.654;-115.458;2023-04-04T12:29:29;101590.03;;;9.59;23.75
59409;BME280;45213;32.654;-115.458;2023-04-04T12:32:03;101594.00;;;9.45;23.94
59409;BME280;45213;32.654;-115.458;2023-04-04T12:34:34;101605.44;;;9.52;23.81
59409;BME280;45213;32.654;-115.458;2023-04-04T12:37:03;101608.91;;;9.52;23.95
59409;BME280;45213;32.654;-115.458;2023-04-04T12:39:29;101615.84;;;9.52;23.89
59409;BME280;45213;32.654;-115.458;2023-04-04T12:41:57;101621.09;;;9.55;23.63
59409;BME280;45213;32.654;-115.458;2023-04-04T12:46:56;101626.63;;;9.35;23.31
59409;BME280;45213;32.654;-115.458;2023-04-04T12:52:05;101639.31;;;9.23;22.85
59409;BME280;45213;32.654;-115.458;2023-04-04T12:54:38;101644.53;;;9.25;22.94
59409;BME280;45213;32.654;-115.458;2023-04-04T12:57:05;101652.69;;;9.37;22.95
59409;BME280;45213;32.654;-115.458;2023-04-04T12:59:34;101657.25;;;9.46;22.86